Reno, NV

9:31 AM PDT on September 22, 2014 (GMT -0700)
Truckee-Tahoe | Change Station
CLOSE
Current Station
Airport
Location: Truckee-Tahoe,
Elevation: 5899 ft
Nearby Weather Stations
Active Advisory: Dense Smoke Advisory

Elev 5899 ft 39.32 °N, 120.14 °W | Updated 1 hour ago

Clear
Clear
37 °F
Feels Like 37 °F
N
0
Wind Variable Wind from North

Today
High -- | Low -- °F
--% Chance of Precip.
Yesterday
High -- | Low -- °F
Precip. -- in
6:46 AM 6:56 PM
Waning Crescent, 2% visible
Pressure 30.26 in
Visibility 4.0 miles
Clouds Mostly Cloudy 900 ft
Dew Point 37 °F
Humidity 100%
Rainfall 0.00 in
Snow Depth 0 in , 0 in , 0 in
UV 0 out of 12
Pollen 6.70 out of 12
Air Quality Not available.
Flu Activity Not available.
METAR KTRK 221455Z 00000KT 4SM FU BKN009 03/03 A3026 RMK NOSPECI FU ALQDS BKN009 BCFG E

More Conditions Fewer Conditions

Pressure 30.26 in
Visibility 4.0 miles
Clouds Mostly Cloudy 900 ft
Dew Point 37 °F
Humidity 100%
Rainfall 0.00 in
Snow Depth 0 in , 0 in , 0 in
UV 0 out of 12
Pollen 6.70 out of 12
Air Quality Not available.
Flu Activity Not available.
METAR KTRK 221455Z 00000KT 4SM FU BKN009 03/03 A3026 RMK NOSPECI FU ALQDS BKN009 BCFG E

More Conditions Fewer Conditions

10-Day Weather Forecast

Almanac

Astronomy

Sep. 22, 2014 Rise Set
Actual Time 6:46 AM PDT 6:56 PM PDT
Civil Twilight 6:20 AM PDT 7:22 PM PDT
Nautical Twilight 5:48 AM PDT 7:54 PM PDT
Astronomical Twilight 5:16 AM PDT 8:26 PM PDT
Moon 5:20 AM PDT 6:06 PM PDT
Length of Visible Light 13h 02m
Length of Day
12h 09m
Tomorrow will be 2m 34s shorter.
Waning Crescent, 2% of the Moon is Illuminated
Today
Waning Crescent
Sep 24
New
Oct 1
First Quarter
Oct 8
Full
Oct 15
Last Quarter

Today's Extremes

State Highs State Lows

Community

WunderPhotos

Upload Photos

1,755,480 photos uploaded!

WunderBlogs® & News

Nearby

Snow Depth

Station Depth Elevation
Green Mountain 0 in 8000 ft
Lewis Peak 0 in 7400 ft
Dorsey Basin 0 in 8100 ft
Mt. Rose Ski Area 0 in 8850 ft
Jacks Peak 3 in 8420 ft

Earthquake Activity

City Distance Mag. Time & Date
Gabbs, Nevada 98 miles 3.3 4:37 AM PDT
2014-09-19
Livermore, California 164 miles 2.6 3:37 AM PDT
2014-09-19
Minimum magnitude displayed is 2.5.

Coastal Water Temperatures

Place Temperature
No Stations Reporting

Nearby Weather Stations